sensor_id;sensor_type;location;lat;lon;timestamp;P1;durP1;ratioP1;P2;durP2;ratioP2
9970;SDS011;5026;51.494;11.974;2023-05-09T00:00:51;11.43;;;8.30;;
9970;SDS011;5026;51.494;11.974;2023-05-09T00:03:18;13.03;;;8.73;;
9970;SDS011;5026;51.494;11.974;2023-05-09T00:05:45;12.93;;;8.30;;
9970;SDS011;5026;51.494;11.974;2023-05-09T00:08:14;9.93;;;8.20;;
9970;SDS011;5026;51.494;11.974;2023-05-09T00:10:41;12.37;;;9.03;;
9970;SDS011;5026;51.494;11.974;2023-05-09T00:13:07;11.77;;;8.73;;
9970;SDS011;5026;51.494;11.974;2023-05-09T00:15:35;12.00;;;8.80;;
9970;SDS011;5026;51.494;11.974;2023-05-09T00:18:01;10.83;;;8.60;;
9970;SDS011;5026;51.494;11.974;2023-05-09T00:20:29;14.17;;;8.77;;
9970;SDS011;5026;51.494;11.974;2023-05-09T00:22:58;10.47;;;8.40;;
9970;SDS011;5026;51.494;11.974;2023-05-09T00:25:26;12.20;;;8.83;;
9970;SDS011;5026;51.494;11.974;2023-05-09T00:27:53;12.10;;;8.73;;
9970;SDS011;5026;51.494;11.974;2023-05-09T00:30:20;14.97;;;9.93;;
9970;SDS011;5026;51.494;11.974;2023-05-09T00:32:47;13.80;;;9.93;;
9970;SDS011;5026;51.494;11.974;2023-05-09T00:35:14;12.10;;;8.83;;
9970;SDS011;5026;51.494;11.974;2023-05-09T00:37:41;15.03;;;9.53;;
9970;SDS011;5026;51.494;11.974;2023-05-09T00:40:08;12.13;;;8.63;;
9970;SDS011;5026;51.494;11.974;2023-05-09T00:42:36;11.90;;;9.93;;
9970;SDS011;5026;51.494;11.974;2023-05-09T00:45:04;13.40;;;8.87;;
9970;SDS011;5026;51.494;11.974;2023-05-09T00:47:32;15.63;;;9.97;;
9970;SDS011;5026;51.494;11.974;2023-05-09T00:50:00;12.03;;;9.13;;
9970;SDS011;5026;51.494;11.974;2023-05-09T00:52:27;16.90;;;8.37;;
9970;SDS011;5026;51.494;11.974;2023-05-09T00:54:56;15.73;;;9.73;;
9970;SDS011;5026;51.494;11.974;2023-05-09T00:57:23;12.13;;;9.17;;
9970;SDS011;5026;51.494;11.974;2023-05-09T00:59:51;13.90;;;9.10;;
9970;SDS011;5026;51.494;11.974;2023-05-09T01:02:18;11.87;;;9.30;;
9970;SDS011;5026;51.494;11.974;2023-05-09T01:04:46;17.97;;;9.83;;
9970;SDS011;5026;51.494;11.974;2023-05-09T01:07:15;15.60;;;9.37;;
9970;SDS011;5026;51.494;11.974;2023-05-09T01:09:50;11.43;;;9.43;;
9970;SDS011;5026;51.494;11.974;2023-05-09T01:12:28;15.43;;;9.30;;
9970;SDS011;5026;51.494;11.974;2023-05-09T01:15:04;11.47;;;9.53;;
9970;SDS011;5026;51.494;11.974;2023-05-09T01:17:39;12.87;;;9.50;;
9970;SDS011;5026;51.494;11.974;2023-05-09T01:20:13;14.80;;;9.73;;
9970;SDS011;5026;51.494;11.974;2023-05-09T01:22:47;12.37;;;9.17;;
9970;SDS011;5026;51.494;11.974;2023-05-09T01:25:35;13.17;;;8.97;;
9970;SDS011;5026;51.494;11.974;2023-05-09T01:28:16;13.97;;;8.97;;
9970;SDS011;5026;51.494;11.974;2023-05-09T01:30:59;17.77;;;9.83;;
9970;SDS011;5026;51.494;11.974;2023-05-09T01:33:28;11.77;;;9.53;;
9970;SDS011;5026;51.494;11.974;2023-05-09T01:36:01;11.10;;;9.00;;
9970;SDS011;5026;51.494;11.974;2023-05-09T01:38:31;15.27;;;9.70;;
9970;SDS011;5026;51.494;11.974;2023-05-09T01:40:59;12.77;;;9.80;;
9970;SDS011;5026;51.494;11.974;2023-05-09T01:43:29;19.50;;;10.17;;
9970;SDS011;5026;51.494;11.974;2023-05-09T01:46:00;15.47;;;9.40;;
9970;SDS011;5026;51.494;11.974;2023-05-09T01:48:29;11.20;;;9.27;;
9970;SDS011;5026;51.494;11.974;2023-05-09T01:50:57;12.67;;;8.77;;
9970;SDS011;5026;51.494;11.974;2023-05-09T01:53:25;12.73;;;8.53;;
9970;SDS011;5026;51.494;11.974;2023-05-09T01:55:54;13.67;;;9.63;;
9970;SDS011;5026;51.494;11.974;2023-05-09T01:58:23;13.10;;;8.63;;
9970;SDS011;5026;51.494;11.974;2023-05-09T02:00:52;10.93;;;8.67;;
9970;SDS011;5026;51.494;11.974;2023-05-09T02:03:20;11.03;;;9.03;;
9970;SDS011;5026;51.494;11.974;2023-05-09T02:05:48;16.03;;;9.53;;
9970;SDS011;5026;51.494;11.974;2023-05-09T02:08:15;12.30;;;10.33;;
9970;SDS011;5026;51.494;11.974;2023-05-09T02:10:46;16.47;;;9.07;;
9970;SDS011;5026;51.494;11.974;2023-05-09T02:13:14;12.77;;;9.43;;
9970;SDS011;5026;51.494;11.974;2023-05-09T02:15:41;12.60;;;8.53;;
9970;SDS011;5026;51.494;11.974;2023-05-09T02:18:08;12.50;;;9.70;;
9970;SDS011;5026;51.494;11.974;2023-05-09T02:20:36;17.07;;;9.33;;
9970;SDS011;5026;51.494;11.974;2023-05-09T02:23:03;14.47;;;9.57;;
9970;SDS011;5026;51.494;11.974;2023-05-09T02:25:31;14.13;;;9.87;;
9970;SDS011;5026;51.494;11.974;2023-05-09T02:27:58;16.93;;;10.07;;
9970;SDS011;5026;51.494;11.974;2023-05-09T02:30:27;12.20;;;9.03;;
9970;SDS011;5026;51.494;11.974;2023-05-09T02:33:02;14.77;;;9.43;;
9970;SDS011;5026;51.494;11.974;2023-05-09T02:35:31;16.40;;;8.57;;
9970;SDS011;5026;51.494;11.974;2023-05-09T02:38:00;13.87;;;9.40;;
9970;SDS011;5026;51.494;11.974;2023-05-09T02:40:28;11.07;;;9.07;;
9970;SDS011;5026;51.494;11.974;2023-05-09T02:42:56;16.93;;;9.30;;
9970;SDS011;5026;51.494;11.974;2023-05-09T02:45:23;17.03;;;9.60;;
9970;SDS011;5026;51.494;11.974;2023-05-09T02:47:50;13.33;;;9.83;;
9970;SDS011;5026;51.494;11.974;2023-05-09T02:50:17;15.00;;;10.13;;
9970;SDS011;5026;51.494;11.974;2023-05-09T02:52:44;11.70;;;8.87;;
9970;SDS011;5026;51.494;11.974;2023-05-09T02:55:12;15.33;;;8.80;;
9970;SDS011;5026;51.494;11.974;2023-05-09T02:57:39;14.43;;;9.47;;
9970;SDS011;5026;51.494;11.974;2023-05-09T03:00:06;12.10;;;9.97;;
9970;SDS011;5026;51.494;11.974;2023-05-09T03:02:34;11.67;;;8.70;;
9970;SDS011;5026;51.494;11.974;2023-05-09T03:05:01;10.77;;;8.37;;
9970;SDS011;5026;51.494;11.974;2023-05-09T03:07:29;13.30;;;9.03;;
9970;SDS011;5026;51.494;11.974;2023-05-09T03:09:56;12.23;;;9.03;;
9970;SDS011;5026;51.494;11.974;2023-05-09T03:12:25;12.80;;;9.80;;
9970;SDS011;5026;51.494;11.974;2023-05-09T03:14:52;12.50;;;9.70;;
9970;SDS011;5026;51.494;11.974;2023-05-09T03:17:19;11.17;;;8.83;;
9970;SDS011;5026;51.494;11.974;2023-05-09T03:19:47;12.30;;;9.20;;
9970;SDS011;5026;51.494;11.974;2023-05-09T03:22:14;13.93;;;9.83;;
9970;SDS011;5026;51.494;11.974;2023-05-09T03:24:41;15.03;;;9.17;;
9970;SDS011;5026;51.494;11.974;2023-05-09T03:27:08;16.27;;;9.27;;
9970;SDS011;5026;51.494;11.974;2023-05-09T03:29:36;13.17;;;9.87;;
9970;SDS011;5026;51.494;11.974;2023-05-09T03:32:03;13.53;;;9.23;;
9970;SDS011;5026;51.494;11.974;2023-05-09T03:34:30;12.93;;;10.23;;
9970;SDS011;5026;51.494;11.974;2023-05-09T03:36:58;12.63;;;9.50;;
9970;SDS011;5026;51.494;11.974;2023-05-09T03:39:24;12.23;;;9.40;;
9970;SDS011;5026;51.494;11.974;2023-05-09T03:41:51;13.27;;;8.83;;
9970;SDS011;5026;51.494;11.974;2023-05-09T03:44:18;12.27;;;9.03;;
9970;SDS011;5026;51.494;11.974;2023-05-09T03:46:46;12.73;;;9.20;;
9970;SDS011;5026;51.494;11.974;2023-05-09T03:49:14;12.73;;;9.63;;
9970;SDS011;5026;51.494;11.974;2023-05-09T03:51:41;14.43;;;9.47;;
9970;SDS011;5026;51.494;11.974;2023-05-09T03:54:08;11.60;;;9.60;;
9970;SDS011;5026;51.494;11.974;2023-05-09T03:56:35;14.10;;;9.50;;
9970;SDS011;5026;51.494;11.974;2023-05-09T03:59:02;13.57;;;9.27;;
9970;SDS011;5026;51.494;11.974;2023-05-09T04:01:29;13.07;;;8.73;;
9970;SDS011;5026;51.494;11.974;2023-05-09T04:03:57;11.93;;;9.13;;
9970;SDS011;5026;51.494;11.974;2023-05-09T04:06:24;13.20;;;9.17;;
9970;SDS011;5026;51.494;11.974;2023-05-09T04:08:51;12.90;;;8.30;;
9970;SDS011;5026;51.494;11.974;2023-05-09T04:11:18;13.13;;;9.20;;
9970;SDS011;5026;51.494;11.974;2023-05-09T04:13:45;15.17;;;8.60;;
9970;SDS011;5026;51.494;11.974;2023-05-09T04:16:12;11.87;;;8.80;;
9970;SDS011;5026;51.494;11.974;2023-05-09T04:18:39;14.03;;;8.30;;
9970;SDS011;5026;51.494;11.974;2023-05-09T04:21:08;11.23;;;8.43;;
9970;SDS011;5026;51.494;11.974;2023-05-09T04:23:35;13.57;;;8.80;;
9970;SDS011;5026;51.494;11.974;2023-05-09T04:26:03;12.10;;;7.73;;
9970;SDS011;5026;51.494;11.974;2023-05-09T04:28:30;12.90;;;8.53;;
9970;SDS011;5026;51.494;11.974;2023-05-09T04:30:57;10.17;;;8.30;;
9970;SDS011;5026;51.494;11.974;2023-05-09T04:33:24;11.50;;;8.60;;
9970;SDS011;5026;51.494;11.974;2023-05-09T04:35:53;12.47;;;7.97;;
9970;SDS011;5026;51.494;11.974;2023-05-09T04:38:21;11.13;;;7.40;;
9970;SDS011;5026;51.494;11.974;2023-05-09T04:40:48;13.53;;;8.40;;
9970;SDS011;5026;51.494;11.974;2023-05-09T04:43:15;17.17;;;8.67;;
9970;SDS011;5026;51.494;11.974;2023-05-09T04:45:43;12.33;;;7.67;;
9970;SDS011;5026;51.494;11.974;2023-05-09T04:48:10;10.13;;;8.23;;
9970;SDS011;5026;51.494;11.974;2023-05-09T04:50:37;9.60;;;7.23;;
9970;SDS011;5026;51.494;11.974;2023-05-09T04:53:03;9.67;;;7.50;;
9970;SDS011;5026;51.494;11.974;2023-05-09T04:55:34;10.73;;;7.73;;
9970;SDS011;5026;51.494;11.974;2023-05-09T04:58:01;12.93;;;7.03;;
9970;SDS011;5026;51.494;11.974;2023-05-09T05:00:28;9.97;;;7.63;;
9970;SDS011;5026;51.494;11.974;2023-05-09T05:02:55;10.60;;;7.80;;
9970;SDS011;5026;51.494;11.974;2023-05-09T05:05:22;10.63;;;7.17;;
9970;SDS011;5026;51.494;11.974;2023-05-09T05:07:48;11.40;;;7.60;;
9970;SDS011;5026;51.494;11.974;2023-05-09T05:10:15;8.50;;;6.90;;
9970;SDS011;5026;51.494;11.974;2023-05-09T05:12:44;11.83;;;7.00;;
9970;SDS011;5026;51.494;11.974;2023-05-09T05:15:11;10.43;;;6.73;;
9970;SDS011;5026;51.494;11.974;2023-05-09T05:17:38;10.77;;;6.77;;
9970;SDS011;5026;51.494;11.974;2023-05-09T05:20:05;8.30;;;6.33;;
9970;SDS011;5026;51.494;11.974;2023-05-09T05:22:34;8.90;;;6.13;;
9970;SDS011;5026;51.494;11.974;2023-05-09T05:25:01;12.30;;;6.13;;
9970;SDS011;5026;51.494;11.974;2023-05-09T05:27:29;10.20;;;6.37;;
9970;SDS011;5026;51.494;11.974;2023-05-09T05:29:58;8.50;;;6.03;;
9970;SDS011;5026;51.494;11.974;2023-05-09T05:32:25;6.93;;;5.80;;
9970;SDS011;5026;51.494;11.974;2023-05-09T05:34:52;10.90;;;5.40;;
9970;SDS011;5026;51.494;11.974;2023-05-09T05:37:18;7.95;;;5.53;;
9970;SDS011;5026;51.494;11.974;2023-05-09T05:39:45;5.82;;;4.95;;
9970;SDS011;5026;51.494;11.974;2023-05-09T05:42:13;7.07;;;5.03;;
9970;SDS011;5026;51.494;11.974;2023-05-09T05:44:39;6.38;;;5.53;;
9970;SDS011;5026;51.494;11.974;2023-05-09T05:47:08;5.95;;;5.35;;
9970;SDS011;5026;51.494;11.974;2023-05-09T05:49:34;9.57;;;5.93;;
9970;SDS011;5026;51.494;11.974;2023-05-09T05:52:01;7.63;;;4.63;;
9970;SDS011;5026;51.494;11.974;2023-05-09T05:54:28;5.82;;;5.15;;
9970;SDS011;5026;51.494;11.974;2023-05-09T05:56:55;8.50;;;5.13;;
9970;SDS011;5026;51.494;11.974;2023-05-09T05:59:22;6.07;;;5.47;;
9970;SDS011;5026;51.494;11.974;2023-05-09T06:01:49;11.68;;;4.80;;
9970;SDS011;5026;51.494;11.974;2023-05-09T06:04:18;9.85;;;5.45;;
9970;SDS011;5026;51.494;11.974;2023-05-09T06:06:44;7.43;;;5.30;;
9970;SDS011;5026;51.494;11.974;2023-05-09T06:09:11;6.20;;;5.10;;
9970;SDS011;5026;51.494;11.974;2023-05-09T06:11:38;7.50;;;4.70;;
9970;SDS011;5026;51.494;11.974;2023-05-09T06:14:05;6.40;;;4.55;;
9970;SDS011;5026;51.494;11.974;2023-05-09T06:16:32;5.20;;;4.60;;
9970;SDS011;5026;51.494;11.974;2023-05-09T06:18:59;7.30;;;4.68;;
9970;SDS011;5026;51.494;11.974;2023-05-09T06:21:27;5.35;;;4.82;;
9970;SDS011;5026;51.494;11.974;2023-05-09T06:23:54;5.10;;;4.38;;
9970;SDS011;5026;51.494;11.974;2023-05-09T06:26:21;5.75;;;4.47;;
9970;SDS011;5026;51.494;11.974;2023-05-09T06:28:48;5.75;;;4.03;;
9970;SDS011;5026;51.494;11.974;2023-05-09T06:31:15;7.97;;;4.10;;
9970;SDS011;5026;51.494;11.974;2023-05-09T06:33:42;6.15;;;4.25;;
9970;SDS011;5026;51.494;11.974;2023-05-09T06:36:09;7.45;;;3.88;;
9970;SDS011;5026;51.494;11.974;2023-05-09T06:38:37;7.25;;;4.40;;
9970;SDS011;5026;51.494;11.974;2023-05-09T06:41:04;7.05;;;4.60;;
9970;SDS011;5026;51.494;11.974;2023-05-09T06:43:31;5.28;;;4.00;;
9970;SDS011;5026;51.494;11.974;2023-05-09T06:45:57;5.13;;;4.00;;
9970;SDS011;5026;51.494;11.974;2023-05-09T06:48:24;7.20;;;4.45;;
9970;SDS011;5026;51.494;11.974;2023-05-09T06:50:51;5.28;;;3.60;;
9970;SDS011;5026;51.494;11.974;2023-05-09T06:53:18;6.45;;;4.20;;
9970;SDS011;5026;51.494;11.974;2023-05-09T06:55:47;5.97;;;3.75;;
9970;SDS011;5026;51.494;11.974;2023-05-09T06:58:14;6.72;;;3.80;;
9970;SDS011;5026;51.494;11.974;2023-05-09T07:00:41;5.13;;;3.53;;
9970;SDS011;5026;51.494;11.974;2023-05-09T07:03:08;7.25;;;3.75;;
9970;SDS011;5026;51.494;11.974;2023-05-09T07:05:35;4.85;;;3.38;;
9970;SDS011;5026;51.494;11.974;2023-05-09T07:08:02;5.68;;;4.38;;
9970;SDS011;5026;51.494;11.974;2023-05-09T07:10:29;5.65;;;3.65;;
9970;SDS011;5026;51.494;11.974;2023-05-09T07:12:58;4.32;;;3.90;;
9970;SDS011;5026;51.494;11.974;2023-05-09T07:15:25;5.05;;;3.67;;
9970;SDS011;5026;51.494;11.974;2023-05-09T07:17:52;5.13;;;3.97;;
9970;SDS011;5026;51.494;11.974;2023-05-09T07:20:18;4.57;;;4.00;;
9970;SDS011;5026;51.494;11.974;2023-05-09T07:22:45;5.78;;;3.92;;
9970;SDS011;5026;51.494;11.974;2023-05-09T07:25:12;6.00;;;3.67;;
9970;SDS011;5026;51.494;11.974;2023-05-09T07:27:39;5.25;;;3.90;;
9970;SDS011;5026;51.494;11.974;2023-05-09T07:30:08;6.60;;;3.40;;
9970;SDS011;5026;51.494;11.974;2023-05-09T07:32:36;3.90;;;3.50;;
9970;SDS011;5026;51.494;11.974;2023-05-09T07:35:03;6.60;;;4.50;;
9970;SDS011;5026;51.494;11.974;2023-05-09T07:37:30;7.45;;;4.32;;
9970;SDS011;5026;51.494;11.974;2023-05-09T07:39:58;6.50;;;4.32;;
9970;SDS011;5026;51.494;11.974;2023-05-09T07:42:24;4.25;;;3.70;;
9970;SDS011;5026;51.494;11.974;2023-05-09T07:44:51;6.25;;;4.20;;
9970;SDS011;5026;51.494;11.974;2023-05-09T07:47:20;7.18;;;3.88;;
9970;SDS011;5026;51.494;11.974;2023-05-09T07:49:47;8.20;;;4.10;;
9970;SDS011;5026;51.494;11.974;2023-05-09T07:52:14;4.82;;;3.88;;
9970;SDS011;5026;51.494;11.974;2023-05-09T07:54:42;5.45;;;3.95;;
9970;SDS011;5026;51.494;11.974;2023-05-09T07:57:09;7.43;;;4.13;;
9970;SDS011;5026;51.494;11.974;2023-05-09T07:59:36;6.82;;;4.40;;
9970;SDS011;5026;51.494;11.974;2023-05-09T08:02:03;5.53;;;4.22;;
9970;SDS011;5026;51.494;11.974;2023-05-09T08:04:32;4.35;;;3.90;;
9970;SDS011;5026;51.494;11.974;2023-05-09T08:07:01;4.85;;;3.95;;
9970;SDS011;5026;51.494;11.974;2023-05-09T08:09:29;7.63;;;3.88;;
9970;SDS011;5026;51.494;11.974;2023-05-09T08:11:56;4.57;;;4.00;;
9970;SDS011;5026;51.494;11.974;2023-05-09T08:14:23;5.85;;;3.58;;
9970;SDS011;5026;51.494;11.974;2023-05-09T08:16:50;5.50;;;3.58;;
9970;SDS011;5026;51.494;11.974;2023-05-09T08:19:17;6.00;;;4.13;;
9970;SDS011;5026;51.494;11.974;2023-05-09T08:21:46;6.20;;;3.80;;
9970;SDS011;5026;51.494;11.974;2023-05-09T08:24:13;5.95;;;3.65;;
9970;SDS011;5026;51.494;11.974;2023-05-09T08:26:40;6.18;;;4.03;;
9970;SDS011;5026;51.494;11.974;2023-05-09T08:29:08;5.20;;;4.22;;
9970;SDS011;5026;51.494;11.974;2023-05-09T08:31:35;3.70;;;3.40;;
9970;SDS011;5026;51.494;11.974;2023-05-09T08:34:02;7.30;;;3.95;;
9970;SDS011;5026;51.494;11.974;2023-05-09T08:36:29;4.80;;;3.40;;
9970;SDS011;5026;51.494;11.974;2023-05-09T08:38:58;6.35;;;3.88;;
9970;SDS011;5026;51.494;11.974;2023-05-09T08:41:25;6.28;;;4.03;;
9970;SDS011;5026;51.494;11.974;2023-05-09T08:43:53;6.20;;;3.78;;
9970;SDS011;5026;51.494;11.974;2023-05-09T08:46:21;5.18;;;3.22;;
9970;SDS011;5026;51.494;11.974;2023-05-09T08:48:53;4.82;;;3.60;;
9970;SDS011;5026;51.494;11.974;2023-05-09T08:51:21;4.75;;;3.20;;
9970;SDS011;5026;51.494;11.974;2023-05-09T08:53:48;3.72;;;3.40;;
9970;SDS011;5026;51.494;11.974;2023-05-09T08:56:18;6.22;;;3.33;;
9970;SDS011;5026;51.494;11.974;2023-05-09T08:58:45;5.07;;;3.83;;
9970;SDS011;5026;51.494;11.974;2023-05-09T09:01:13;5.22;;;3.70;;
9970;SDS011;5026;51.494;11.974;2023-05-09T09:03:41;4.93;;;3.47;;
9970;SDS011;5026;51.494;11.974;2023-05-09T09:06:11;4.95;;;4.20;;
9970;SDS011;5026;51.494;11.974;2023-05-09T09:08:39;8.40;;;3.95;;
9970;SDS011;5026;51.494;11.974;2023-05-09T09:11:07;5.10;;;3.78;;
9970;SDS011;5026;51.494;11.974;2023-05-09T09:13:38;6.97;;;4.70;;
9970;SDS011;5026;51.494;11.974;2023-05-09T09:16:07;5.60;;;3.47;;
9970;SDS011;5026;51.494;11.974;2023-05-09T09:18:37;4.47;;;3.50;;
9970;SDS011;5026;51.494;11.974;2023-05-09T09:21:05;10.18;;;4.13;;
9970;SDS011;5026;51.494;11.974;2023-05-09T09:23:34;6.63;;;3.83;;
9970;SDS011;5026;51.494;11.974;2023-05-09T09:26:04;13.00;;;3.40;;
9970;SDS011;5026;51.494;11.974;2023-05-09T09:28:34;4.68;;;3.63;;
9970;SDS011;5026;51.494;11.974;2023-05-09T09:31:03;5.43;;;3.88;;
9970;SDS011;5026;51.494;11.974;2023-05-09T09:33:45;4.80;;;3.17;;
9970;SDS011;5026;51.494;11.974;2023-05-09T09:36:13;3.72;;;3.33;;
9970;SDS011;5026;51.494;11.974;2023-05-09T09:38:40;5.18;;;3.13;;
9970;SDS011;5026;51.494;11.974;2023-05-09T09:41:08;4.43;;;3.28;;
9970;SDS011;5026;51.494;11.974;2023-05-09T09:43:37;4.80;;;3.60;;
9970;SDS011;5026;51.494;11.974;2023-05-09T09:46:05;3.53;;;2.95;;
9970;SDS011;5026;51.494;11.974;2023-05-09T09:48:34;4.38;;;3.53;;
9970;SDS011;5026;51.494;11.974;2023-05-09T09:51:03;5.68;;;3.33;;
9970;SDS011;5026;51.494;11.974;2023-05-09T09:53:37;6.90;;;3.80;;
9970;SDS011;5026;51.494;11.974;2023-05-09T09:56:04;6.43;;;2.92;;
9970;SDS011;5026;51.494;11.974;2023-05-09T09:58:32;3.55;;;3.25;;
9970;SDS011;5026;51.494;11.974;2023-05-09T10:01:03;4.07;;;3.17;;
9970;SDS011;5026;51.494;11.974;2023-05-09T10:03:36;5.10;;;3.22;;
9970;SDS011;5026;51.494;11.974;2023-05-09T10:06:04;5.35;;;3.25;;
9970;SDS011;5026;51.494;11.974;2023-05-09T10:08:31;6.10;;;3.10;;
9970;SDS011;5026;51.494;11.974;2023-05-09T10:10:58;6.40;;;3.08;;
9970;SDS011;5026;51.494;11.974;2023-05-09T10:13:25;4.57;;;3.20;;
9970;SDS011;5026;51.494;11.974;2023-05-09T10:15:54;9.18;;;3.50;;
9970;SDS011;5026;51.494;11.974;2023-05-09T10:18:24;7.90;;;3.10;;
9970;SDS011;5026;51.494;11.974;2023-05-09T10:20:54;5.72;;;3.55;;
9970;SDS011;5026;51.494;11.974;2023-05-09T10:23:25;4.32;;;3.28;;
9970;SDS011;5026;51.494;11.974;2023-05-09T10:25:57;6.78;;;3.35;;
9970;SDS011;5026;51.494;11.974;2023-05-09T10:28:30;5.07;;;3.33;;
9970;SDS011;5026;51.494;11.974;2023-05-09T10:30:59;4.97;;;3.72;;
9970;SDS011;5026;51.494;11.974;2023-05-09T10:33:33;5.55;;;3.78;;
9970;SDS011;5026;51.494;11.974;2023-05-09T10:36:08;5.57;;;3.40;;
9970;SDS011;5026;51.494;11.974;2023-05-09T10:38:36;3.53;;;3.22;;
9970;SDS011;5026;51.494;11.974;2023-05-09T10:41:03;3.60;;;3.17;;
9970;SDS011;5026;51.494;11.974;2023-05-09T10:43:31;5.30;;;3.22;;
9970;SDS011;5026;51.494;11.974;2023-05-09T10:46:00;6.65;;;3.28;;
9970;SDS011;5026;51.494;11.974;2023-05-09T10:48:28;5.32;;;3.45;;
9970;SDS011;5026;51.494;11.974;2023-05-09T10:50:55;5.88;;;3.05;;
9970;SDS011;5026;51.494;11.974;2023-05-09T10:53:24;3.72;;;3.08;;
9970;SDS011;5026;51.494;11.974;2023-05-09T10:56:06;8.75;;;4.10;;
9970;SDS011;5026;51.494;11.974;2023-05-09T10:58:33;4.97;;;2.92;;
9970;SDS011;5026;51.494;11.974;2023-05-09T11:01:03;3.15;;;2.65;;
9970;SDS011;5026;51.494;11.974;2023-05-09T11:09:26;4.00;;;3.17;;
9970;SDS011;5026;51.494;11.974;2023-05-09T11:11:57;5.25;;;3.25;;
9970;SDS011;5026;51.494;11.974;2023-05-09T11:14:32;4.75;;;3.47;;
9970;SDS011;5026;51.494;11.974;2023-05-09T11:17:05;4.95;;;3.22;;
9970;SDS011;5026;51.494;11.974;2023-05-09T11:19:37;14.43;;;3.70;;
9970;SDS011;5026;51.494;11.974;2023-05-09T11:22:20;6.22;;;3.40;;
9970;SDS011;5026;51.494;11.974;2023-05-09T11:24:50;5.60;;;2.97;;
9970;SDS011;5026;51.494;11.974;2023-05-09T11:27:19;7.60;;;3.78;;
9970;SDS011;5026;51.494;11.974;2023-05-09T11:29:49;4.80;;;3.28;;
9970;SDS011;5026;51.494;11.974;2023-05-09T11:32:17;4.57;;;3.40;;
9970;SDS011;5026;51.494;11.974;2023-05-09T11:34:45;3.45;;;2.88;;
9970;SDS011;5026;51.494;11.974;2023-05-09T11:37:13;4.88;;;2.90;;
9970;SDS011;5026;51.494;11.974;2023-05-09T11:39:58;7.30;;;2.72;;
9970;SDS011;5026;51.494;11.974;2023-05-09T11:42:29;8.00;;;3.40;;
9970;SDS011;5026;51.494;11.974;2023-05-09T11:44:56;7.88;;;2.97;;
9970;SDS011;5026;51.494;11.974;2023-05-09T11:47:24;4.68;;;3.10;;
9970;SDS011;5026;51.494;11.974;2023-05-09T11:49:52;7.30;;;3.00;;
9970;SDS011;5026;51.494;11.974;2023-05-09T11:52:20;5.75;;;3.50;;
9970;SDS011;5026;51.494;11.974;2023-05-09T11:54:48;5.93;;;2.97;;
9970;SDS011;5026;51.494;11.974;2023-05-09T11:57:16;5.50;;;3.00;;
9970;SDS011;5026;51.494;11.974;2023-05-09T11:59:44;3.65;;;2.85;;
9970;SDS011;5026;51.494;11.974;2023-05-09T12:02:11;3.20;;;2.90;;
9970;SDS011;5026;51.494;11.974;2023-05-09T12:04:39;6.43;;;3.05;;
9970;SDS011;5026;51.494;11.974;2023-05-09T12:07:06;5.57;;;2.97;;
9970;SDS011;5026;51.494;11.974;2023-05-09T12:09:36;3.38;;;2.67;;
9970;SDS011;5026;51.494;11.974;2023-05-09T12:12:09;3.35;;;2.70;;
9970;SDS011;5026;51.494;11.974;2023-05-09T12:14:40;4.10;;;3.00;;
9970;SDS011;5026;51.494;11.974;2023-05-09T12:17:07;3.65;;;2.90;;
9970;SDS011;5026;51.494;11.974;2023-05-09T12:19:37;7.43;;;2.72;;
9970;SDS011;5026;51.494;11.974;2023-05-09T12:22:03;7.10;;;3.22;;
9970;SDS011;5026;51.494;11.974;2023-05-09T12:24:31;9.07;;;2.88;;
9970;SDS011;5026;51.494;11.974;2023-05-09T12:27:02;4.55;;;3.00;;
9970;SDS011;5026;51.494;11.974;2023-05-09T12:29:31;3.78;;;2.63;;
9970;SDS011;5026;51.494;11.974;2023-05-09T12:32:00;3.80;;;2.95;;
9970;SDS011;5026;51.494;11.974;2023-05-09T12:34:27;3.30;;;2.92;;
9970;SDS011;5026;51.494;11.974;2023-05-09T12:36:55;3.38;;;2.88;;
9970;SDS011;5026;51.494;11.974;2023-05-09T12:39:24;3.22;;;2.90;;
9970;SDS011;5026;51.494;11.974;2023-05-09T12:41:51;4.45;;;3.13;;
9970;SDS011;5026;51.494;11.974;2023-05-09T12:44:19;4.07;;;2.83;;
9970;SDS011;5026;51.494;11.974;2023-05-09T12:46:56;6.18;;;2.90;;
9970;SDS011;5026;51.494;11.974;2023-05-09T12:49:25;5.68;;;2.75;;
9970;SDS011;5026;51.494;11.974;2023-05-09T12:51:53;4.38;;;3.28;;
9970;SDS011;5026;51.494;11.974;2023-05-09T12:54:22;4.97;;;2.63;;
9970;SDS011;5026;51.494;11.974;2023-05-09T12:56:49;5.45;;;2.75;;
9970;SDS011;5026;51.494;11.974;2023-05-09T12:59:21;6.53;;;2.97;;
9970;SDS011;5026;51.494;11.974;2023-05-09T13:01:52;6.13;;;3.15;;
9970;SDS011;5026;51.494;11.974;2023-05-09T13:04:22;4.93;;;2.83;;
9970;SDS011;5026;51.494;11.974;2023-05-09T13:06:52;3.55;;;2.53;;
9970;SDS011;5026;51.494;11.974;2023-05-09T13:09:21;2.80;;;2.50;;
9970;SDS011;5026;51.494;11.974;2023-05-09T13:11:49;5.40;;;2.53;;
9970;SDS011;5026;51.494;11.974;2023-05-09T13:14:17;2.53;;;2.28;;
9970;SDS011;5026;51.494;11.974;2023-05-09T13:16:45;2.58;;;2.28;;
9970;SDS011;5026;51.494;11.974;2023-05-09T13:19:12;4.80;;;3.20;;
9970;SDS011;5026;51.494;11.974;2023-05-09T13:21:40;4.35;;;2.50;;
9970;SDS011;5026;51.494;11.974;2023-05-09T13:24:08;5.13;;;2.63;;
9970;SDS011;5026;51.494;11.974;2023-05-09T13:26:35;4.18;;;2.55;;
9970;SDS011;5026;51.494;11.974;2023-05-09T13:29:02;3.60;;;2.53;;
9970;SDS011;5026;51.494;11.974;2023-05-09T13:31:30;7.00;;;2.80;;
9970;SDS011;5026;51.494;11.974;2023-05-09T13:33:57;5.25;;;2.80;;
9970;SDS011;5026;51.494;11.974;2023-05-09T13:36:24;3.33;;;2.35;;
9970;SDS011;5026;51.494;11.974;2023-05-09T13:38:51;6.50;;;2.50;;
9970;SDS011;5026;51.494;11.974;2023-05-09T13:41:19;3.55;;;2.88;;
9970;SDS011;5026;51.494;11.974;2023-05-09T13:43:48;4.15;;;2.45;;
9970;SDS011;5026;51.494;11.974;2023-05-09T13:46:15;5.30;;;2.70;;
9970;SDS011;5026;51.494;11.974;2023-05-09T13:48:42;4.30;;;2.70;;
9970;SDS011;5026;51.494;11.974;2023-05-09T13:51:11;4.65;;;2.38;;
9970;SDS011;5026;51.494;11.974;2023-05-09T13:53:39;6.03;;;2.50;;
9970;SDS011;5026;51.494;11.974;2023-05-09T13:56:06;8.65;;;2.75;;
9970;SDS011;5026;51.494;11.974;2023-05-09T13:58:35;5.47;;;2.40;;
9970;SDS011;5026;51.494;11.974;2023-05-09T14:01:02;3.95;;;2.28;;
9970;SDS011;5026;51.494;11.974;2023-05-09T14:03:28;4.28;;;2.20;;
9970;SDS011;5026;51.494;11.974;2023-05-09T14:05:56;4.15;;;2.58;;
9970;SDS011;5026;51.494;11.974;2023-05-09T14:08:23;2.38;;;2.17;;
9970;SDS011;5026;51.494;11.974;2023-05-09T14:10:51;3.80;;;2.33;;
9970;SDS011;5026;51.494;11.974;2023-05-09T14:13:18;4.28;;;2.17;;
9970;SDS011;5026;51.494;11.974;2023-05-09T14:15:48;4.68;;;2.33;;
9970;SDS011;5026;51.494;11.974;2023-05-09T14:18:15;2.78;;;2.25;;
9970;SDS011;5026;51.494;11.974;2023-05-09T14:20:42;3.25;;;2.40;;
9970;SDS011;5026;51.494;11.974;2023-05-09T14:23:09;4.15;;;2.08;;
9970;SDS011;5026;51.494;11.974;2023-05-09T14:25:37;4.35;;;2.50;;
9970;SDS011;5026;51.494;11.974;2023-05-09T14:28:04;5.78;;;2.05;;
9970;SDS011;5026;51.494;11.974;2023-05-09T14:30:33;2.42;;;2.22;;
9970;SDS011;5026;51.494;11.974;2023-05-09T14:33:04;5.30;;;2.50;;
9970;SDS011;5026;51.494;11.974;2023-05-09T14:35:32;2.40;;;1.60;;
9970;SDS011;5026;51.494;11.974;2023-05-09T14:37:59;5.22;;;1.90;;
9970;SDS011;5026;51.494;11.974;2023-05-09T14:40:26;5.65;;;1.92;;
9970;SDS011;5026;51.494;11.974;2023-05-09T14:42:56;2.03;;;1.60;;
9970;SDS011;5026;51.494;11.974;2023-05-09T14:45:23;2.80;;;2.05;;
9970;SDS011;5026;51.494;11.974;2023-05-09T14:47:50;2.55;;;1.85;;
9970;SDS011;5026;51.494;11.974;2023-05-09T14:50:19;1.77;;;1.65;;
9970;SDS011;5026;51.494;11.974;2023-05-09T14:52:46;6.18;;;2.05;;
9970;SDS011;5026;51.494;11.974;2023-05-09T14:55:13;5.20;;;1.92;;
9970;SDS011;5026;51.494;11.974;2023-05-09T14:57:40;4.97;;;1.70;;
9970;SDS011;5026;51.494;11.974;2023-05-09T15:00:08;2.75;;;1.90;;
9970;SDS011;5026;51.494;11.974;2023-05-09T15:02:36;4.18;;;1.92;;
9970;SDS011;5026;51.494;11.974;2023-05-09T15:05:04;2.13;;;1.80;;
9970;SDS011;5026;51.494;11.974;2023-05-09T15:07:33;1.80;;;1.70;;